sensor_id;sensor_type;location;lat;lon;timestamp;P1;durP1;ratioP1;P2;durP2;ratioP2
23322;SDS011;11833;52.554;13.554;2023-06-10T00:00:53;5.10;;;2.30;;
23322;SDS011;11833;52.554;13.554;2023-06-10T00:03:20;5.53;;;2.47;;
23322;SDS011;11833;52.554;13.554;2023-06-10T00:05:49;5.38;;;2.88;;
23322;SDS011;11833;52.554;13.554;2023-06-10T00:08:14;4.38;;;2.67;;
23322;SDS011;11833;52.554;13.554;2023-06-10T00:10:40;8.43;;;3.90;;
23322;SDS011;11833;52.554;13.554;2023-06-10T00:13:06;7.28;;;3.60;;
23322;SDS011;11833;52.554;13.554;2023-06-10T00:15:36;6.90;;;2.67;;
23322;SDS011;11833;52.554;13.554;2023-06-10T00:18:03;10.05;;;3.05;;
23322;SDS011;11833;52.554;13.554;2023-06-10T00:20:29;6.63;;;2.60;;
23322;SDS011;11833;52.554;13.554;2023-06-10T00:22:56;7.45;;;2.78;;
23322;SDS011;11833;52.554;13.554;2023-06-10T00:25:24;8.18;;;2.60;;
23322;SDS011;11833;52.554;13.554;2023-06-10T00:27:51;7.60;;;3.03;;
23322;SDS011;11833;52.554;13.554;2023-06-10T00:30:16;6.63;;;2.47;;
23322;SDS011;11833;52.554;13.554;2023-06-10T00:32:42;8.77;;;2.92;;
23322;SDS011;11833;52.554;13.554;2023-06-10T00:35:08;6.07;;;2.80;;
23322;SDS011;11833;52.554;13.554;2023-06-10T00:37:34;9.65;;;3.47;;
23322;SDS011;11833;52.554;13.554;2023-06-10T00:40:01;3.92;;;2.92;;
23322;SDS011;11833;52.554;13.554;2023-06-10T00:42:28;9.38;;;2.72;;
23322;SDS011;11833;52.554;13.554;2023-06-10T00:44:54;6.35;;;2.97;;
23322;SDS011;11833;52.554;13.554;2023-06-10T00:47:20;7.43;;;3.40;;
23322;SDS011;11833;52.554;13.554;2023-06-10T00:49:47;7.82;;;2.75;;
23322;SDS011;11833;52.554;13.554;2023-06-10T00:52:14;7.03;;;2.55;;
23322;SDS011;11833;52.554;13.554;2023-06-10T00:54:41;4.55;;;2.08;;
23322;SDS011;11833;52.554;13.554;2023-06-10T00:57:07;5.93;;;2.65;;
23322;SDS011;11833;52.554;13.554;2023-06-10T00:59:33;7.88;;;3.15;;
23322;SDS011;11833;52.554;13.554;2023-06-10T01:01:59;8.23;;;3.55;;
23322;SDS011;11833;52.554;13.554;2023-06-10T01:04:25;8.77;;;3.00;;
23322;SDS011;11833;52.554;13.554;2023-06-10T01:06:57;7.10;;;3.58;;
23322;SDS011;11833;52.554;13.554;2023-06-10T01:12:26;6.38;;;3.25;;
23322;SDS011;11833;52.554;13.554;2023-06-10T01:15:06;7.88;;;2.97;;
23322;SDS011;11833;52.554;13.554;2023-06-10T01:17:36;8.43;;;2.80;;
23322;SDS011;11833;52.554;13.554;2023-06-10T01:20:23;6.22;;;2.83;;
23322;SDS011;11833;52.554;13.554;2023-06-10T01:22:51;7.35;;;2.58;;
23322;SDS011;11833;52.554;13.554;2023-06-10T01:25:23;8.27;;;3.05;;
23322;SDS011;11833;52.554;13.554;2023-06-10T01:33:17;9.63;;;2.80;;
23322;SDS011;11833;52.554;13.554;2023-06-10T01:35:50;8.65;;;3.10;;
23322;SDS011;11833;52.554;13.554;2023-06-10T01:38:18;7.55;;;2.60;;
23322;SDS011;11833;52.554;13.554;2023-06-10T01:40:46;4.88;;;2.65;;
23322;SDS011;11833;52.554;13.554;2023-06-10T01:43:13;8.65;;;2.95;;
23322;SDS011;11833;52.554;13.554;2023-06-10T01:45:39;6.45;;;3.22;;
23322;SDS011;11833;52.554;13.554;2023-06-10T01:48:05;7.03;;;2.92;;
23322;SDS011;11833;52.554;13.554;2023-06-10T01:50:31;6.75;;;3.22;;
23322;SDS011;11833;52.554;13.554;2023-06-10T01:52:57;7.95;;;2.80;;
23322;SDS011;11833;52.554;13.554;2023-06-10T01:55:24;7.30;;;2.70;;
23322;SDS011;11833;52.554;13.554;2023-06-10T01:57:50;6.07;;;3.08;;
23322;SDS011;11833;52.554;13.554;2023-06-10T02:00:16;7.63;;;3.05;;
23322;SDS011;11833;52.554;13.554;2023-06-10T02:02:42;6.85;;;2.92;;
23322;SDS011;11833;52.554;13.554;2023-06-10T02:05:08;7.10;;;3.53;;
23322;SDS011;11833;52.554;13.554;2023-06-10T02:07:34;7.32;;;3.40;;
23322;SDS011;11833;52.554;13.554;2023-06-10T02:09:59;9.80;;;3.67;;
23322;SDS011;11833;52.554;13.554;2023-06-10T02:12:25;7.93;;;2.88;;
23322;SDS011;11833;52.554;13.554;2023-06-10T02:14:51;6.72;;;2.85;;
23322;SDS011;11833;52.554;13.554;2023-06-10T02:17:17;8.90;;;2.67;;
23322;SDS011;11833;52.554;13.554;2023-06-10T02:19:43;6.60;;;2.90;;
23322;SDS011;11833;52.554;13.554;2023-06-10T02:22:09;10.65;;;3.70;;
23322;SDS011;11833;52.554;13.554;2023-06-10T02:24:35;9.05;;;2.83;;
23322;SDS011;11833;52.554;13.554;2023-06-10T02:27:03;6.30;;;3.13;;
23322;SDS011;11833;52.554;13.554;2023-06-10T02:29:32;7.97;;;3.13;;
23322;SDS011;11833;52.554;13.554;2023-06-10T02:32:01;6.03;;;2.97;;
23322;SDS011;11833;52.554;13.554;2023-06-10T02:34:28;9.13;;;3.22;;
23322;SDS011;11833;52.554;13.554;2023-06-10T02:36:54;8.95;;;3.28;;
23322;SDS011;11833;52.554;13.554;2023-06-10T02:39:20;7.15;;;3.45;;
23322;SDS011;11833;52.554;13.554;2023-06-10T02:41:46;13.25;;;2.72;;
23322;SDS011;11833;52.554;13.554;2023-06-10T02:44:12;6.55;;;2.85;;
23322;SDS011;11833;52.554;13.554;2023-06-10T02:46:38;9.15;;;3.10;;
23322;SDS011;11833;52.554;13.554;2023-06-10T02:49:04;6.57;;;3.05;;
23322;SDS011;11833;52.554;13.554;2023-06-10T02:51:29;8.20;;;3.38;;
23322;SDS011;11833;52.554;13.554;2023-06-10T02:53:55;8.95;;;2.65;;
23322;SDS011;11833;52.554;13.554;2023-06-10T02:56:21;7.20;;;3.33;;
23322;SDS011;11833;52.554;13.554;2023-06-10T02:58:46;7.65;;;3.38;;
23322;SDS011;11833;52.554;13.554;2023-06-10T03:01:14;7.88;;;2.83;;
23322;SDS011;11833;52.554;13.554;2023-06-10T03:03:40;6.00;;;3.35;;
23322;SDS011;11833;52.554;13.554;2023-06-10T03:06:08;8.57;;;3.15;;
23322;SDS011;11833;52.554;13.554;2023-06-10T03:08:35;9.00;;;3.42;;
23322;SDS011;11833;52.554;13.554;2023-06-10T03:11:02;9.27;;;3.00;;
23322;SDS011;11833;52.554;13.554;2023-06-10T03:13:28;7.60;;;3.28;;
23322;SDS011;11833;52.554;13.554;2023-06-10T03:15:54;7.78;;;3.08;;
23322;SDS011;11833;52.554;13.554;2023-06-10T03:18:20;8.07;;;3.33;;
23322;SDS011;11833;52.554;13.554;2023-06-10T03:20:48;6.82;;;2.80;;
23322;SDS011;11833;52.554;13.554;2023-06-10T03:23:13;5.93;;;2.78;;
23322;SDS011;11833;52.554;13.554;2023-06-10T03:25:40;5.00;;;2.83;;
23322;SDS011;11833;52.554;13.554;2023-06-10T03:28:06;6.60;;;3.00;;
23322;SDS011;11833;52.554;13.554;2023-06-10T03:30:32;9.55;;;3.78;;
23322;SDS011;11833;52.554;13.554;2023-06-10T03:32:57;8.15;;;3.45;;
23322;SDS011;11833;52.554;13.554;2023-06-10T03:35:23;6.97;;;3.25;;
23322;SDS011;11833;52.554;13.554;2023-06-10T03:37:49;7.70;;;3.30;;
23322;SDS011;11833;52.554;13.554;2023-06-10T03:40:15;7.88;;;3.60;;
23322;SDS011;11833;52.554;13.554;2023-06-10T03:42:41;6.78;;;3.38;;
23322;SDS011;11833;52.554;13.554;2023-06-10T03:45:06;7.20;;;3.15;;
23322;SDS011;11833;52.554;13.554;2023-06-10T03:47:34;10.75;;;3.60;;
23322;SDS011;11833;52.554;13.554;2023-06-10T03:50:02;9.05;;;3.92;;
23322;SDS011;11833;52.554;13.554;2023-06-10T03:52:29;7.40;;;3.70;;
23322;SDS011;11833;52.554;13.554;2023-06-10T03:54:55;9.90;;;3.38;;
23322;SDS011;11833;52.554;13.554;2023-06-10T03:57:21;8.43;;;3.13;;
23322;SDS011;11833;52.554;13.554;2023-06-10T03:59:47;6.20;;;3.53;;
23322;SDS011;11833;52.554;13.554;2023-06-10T04:02:13;4.88;;;2.90;;
23322;SDS011;11833;52.554;13.554;2023-06-10T04:04:38;5.90;;;2.80;;
23322;SDS011;11833;52.554;13.554;2023-06-10T04:07:04;6.20;;;3.33;;
23322;SDS011;11833;52.554;13.554;2023-06-10T04:09:31;8.40;;;3.25;;
23322;SDS011;11833;52.554;13.554;2023-06-10T04:11:57;5.90;;;3.33;;
23322;SDS011;11833;52.554;13.554;2023-06-10T04:14:22;8.40;;;3.05;;
23322;SDS011;11833;52.554;13.554;2023-06-10T04:16:49;6.25;;;3.22;;
23322;SDS011;11833;52.554;13.554;2023-06-10T04:19:15;6.90;;;3.20;;
23322;SDS011;11833;52.554;13.554;2023-06-10T04:21:41;8.45;;;3.38;;
23322;SDS011;11833;52.554;13.554;2023-06-10T04:24:07;5.05;;;2.97;;
23322;SDS011;11833;52.554;13.554;2023-06-10T04:26:34;8.40;;;3.60;;
23322;SDS011;11833;52.554;13.554;2023-06-10T04:29:00;8.15;;;3.40;;
23322;SDS011;11833;52.554;13.554;2023-06-10T04:31:26;10.32;;;3.22;;
23322;SDS011;11833;52.554;13.554;2023-06-10T04:33:52;6.75;;;3.42;;
23322;SDS011;11833;52.554;13.554;2023-06-10T04:36:19;5.95;;;3.50;;
23322;SDS011;11833;52.554;13.554;2023-06-10T04:38:45;13.27;;;2.90;;
23322;SDS011;11833;52.554;13.554;2023-06-10T04:41:11;9.93;;;3.75;;
23322;SDS011;11833;52.554;13.554;2023-06-10T04:43:37;9.88;;;4.03;;
23322;SDS011;11833;52.554;13.554;2023-06-10T04:46:03;5.80;;;3.28;;
23322;SDS011;11833;52.554;13.554;2023-06-10T04:48:29;5.18;;;3.17;;
23322;SDS011;11833;52.554;13.554;2023-06-10T04:50:55;8.43;;;3.38;;
23322;SDS011;11833;52.554;13.554;2023-06-10T04:53:21;11.07;;;4.18;;
23322;SDS011;11833;52.554;13.554;2023-06-10T04:55:47;8.57;;;3.80;;
23322;SDS011;11833;52.554;13.554;2023-06-10T04:58:13;10.07;;;3.25;;
23322;SDS011;11833;52.554;13.554;2023-06-10T05:00:40;7.75;;;3.83;;
23322;SDS011;11833;52.554;13.554;2023-06-10T05:03:06;10.05;;;4.53;;
23322;SDS011;11833;52.554;13.554;2023-06-10T05:05:33;7.32;;;3.38;;
23322;SDS011;11833;52.554;13.554;2023-06-10T05:07:58;6.65;;;3.53;;
23322;SDS011;11833;52.554;13.554;2023-06-10T05:10:24;5.55;;;3.25;;
23322;SDS011;11833;52.554;13.554;2023-06-10T05:12:50;6.97;;;3.55;;
23322;SDS011;11833;52.554;13.554;2023-06-10T05:15:16;9.82;;;4.22;;
23322;SDS011;11833;52.554;13.554;2023-06-10T05:17:42;7.15;;;3.25;;
23322;SDS011;11833;52.554;13.554;2023-06-10T05:20:08;7.00;;;3.40;;
23322;SDS011;11833;52.554;13.554;2023-06-10T05:22:34;9.25;;;3.38;;
23322;SDS011;11833;52.554;13.554;2023-06-10T05:25:00;9.23;;;4.30;;
23322;SDS011;11833;52.554;13.554;2023-06-10T05:27:26;8.90;;;3.42;;
23322;SDS011;11833;52.554;13.554;2023-06-10T05:29:51;5.80;;;3.60;;
23322;SDS011;11833;52.554;13.554;2023-06-10T05:32:17;10.02;;;3.60;;
23322;SDS011;11833;52.554;13.554;2023-06-10T05:34:43;7.65;;;5.03;;
23322;SDS011;11833;52.554;13.554;2023-06-10T05:37:09;9.75;;;3.97;;
23322;SDS011;11833;52.554;13.554;2023-06-10T05:39:35;5.10;;;3.72;;
23322;SDS011;11833;52.554;13.554;2023-06-10T05:42:07;7.07;;;3.17;;
23322;SDS011;11833;52.554;13.554;2023-06-10T05:44:34;7.80;;;3.60;;
23322;SDS011;11833;52.554;13.554;2023-06-10T05:47:00;6.00;;;3.53;;
23322;SDS011;11833;52.554;13.554;2023-06-10T05:49:25;9.75;;;3.33;;
23322;SDS011;11833;52.554;13.554;2023-06-10T05:51:52;9.57;;;3.20;;
23322;SDS011;11833;52.554;13.554;2023-06-10T05:54:17;10.85;;;5.88;;
23322;SDS011;11833;52.554;13.554;2023-06-10T05:56:44;6.22;;;3.75;;
23322;SDS011;11833;52.554;13.554;2023-06-10T05:59:09;10.60;;;3.63;;
23322;SDS011;11833;52.554;13.554;2023-06-10T06:01:35;6.10;;;3.45;;
23322;SDS011;11833;52.554;13.554;2023-06-10T06:04:01;7.90;;;3.38;;
23322;SDS011;11833;52.554;13.554;2023-06-10T06:06:27;7.32;;;3.80;;
23322;SDS011;11833;52.554;13.554;2023-06-10T06:08:53;12.15;;;3.75;;
23322;SDS011;11833;52.554;13.554;2023-06-10T06:11:18;7.45;;;3.67;;
23322;SDS011;11833;52.554;13.554;2023-06-10T06:13:44;7.28;;;4.03;;
23322;SDS011;11833;52.554;13.554;2023-06-10T06:16:10;8.35;;;4.32;;
23322;SDS011;11833;52.554;13.554;2023-06-10T06:18:36;5.53;;;3.47;;
23322;SDS011;11833;52.554;13.554;2023-06-10T06:21:01;6.28;;;3.88;;
23322;SDS011;11833;52.554;13.554;2023-06-10T06:23:27;7.78;;;3.53;;
23322;SDS011;11833;52.554;13.554;2023-06-10T06:25:53;6.93;;;3.90;;
23322;SDS011;11833;52.554;13.554;2023-06-10T06:28:19;6.50;;;3.25;;
23322;SDS011;11833;52.554;13.554;2023-06-10T06:30:46;7.20;;;4.70;;
23322;SDS011;11833;52.554;13.554;2023-06-10T06:33:12;6.47;;;3.67;;
23322;SDS011;11833;52.554;13.554;2023-06-10T06:35:38;9.93;;;4.20;;
23322;SDS011;11833;52.554;13.554;2023-06-10T06:38:05;7.32;;;4.00;;
23322;SDS011;11833;52.554;13.554;2023-06-10T06:40:31;5.90;;;3.70;;
23322;SDS011;11833;52.554;13.554;2023-06-10T06:42:56;5.90;;;3.78;;
23322;SDS011;11833;52.554;13.554;2023-06-10T06:45:22;7.95;;;4.45;;
23322;SDS011;11833;52.554;13.554;2023-06-10T06:47:48;15.48;;;4.68;;
23322;SDS011;11833;52.554;13.554;2023-06-10T06:50:14;7.00;;;4.18;;
23322;SDS011;11833;52.554;13.554;2023-06-10T06:52:40;8.35;;;4.03;;
23322;SDS011;11833;52.554;13.554;2023-06-10T06:55:06;7.57;;;4.72;;
23322;SDS011;11833;52.554;13.554;2023-06-10T06:57:32;8.68;;;5.18;;
23322;SDS011;11833;52.554;13.554;2023-06-10T06:59:58;7.50;;;4.22;;
23322;SDS011;11833;52.554;13.554;2023-06-10T07:02:24;8.52;;;3.90;;
23322;SDS011;11833;52.554;13.554;2023-06-10T07:04:49;8.13;;;3.92;;
23322;SDS011;11833;52.554;13.554;2023-06-10T07:07:15;10.38;;;3.85;;
23322;SDS011;11833;52.554;13.554;2023-06-10T07:09:41;11.73;;;4.25;;
23322;SDS011;11833;52.554;13.554;2023-06-10T07:12:07;5.45;;;3.90;;
23322;SDS011;11833;52.554;13.554;2023-06-10T07:14:33;8.90;;;4.20;;
23322;SDS011;11833;52.554;13.554;2023-06-10T07:16:59;10.93;;;4.32;;
23322;SDS011;11833;52.554;13.554;2023-06-10T07:19:25;10.20;;;4.97;;
23322;SDS011;11833;52.554;13.554;2023-06-10T07:21:50;10.52;;;3.70;;
23322;SDS011;11833;52.554;13.554;2023-06-10T07:24:16;8.77;;;3.72;;
23322;SDS011;11833;52.554;13.554;2023-06-10T07:26:42;16.08;;;9.95;;
23322;SDS011;11833;52.554;13.554;2023-06-10T07:30:11;14.95;;;6.10;;
23322;SDS011;11833;52.554;13.554;2023-06-10T07:32:37;9.32;;;4.50;;
23322;SDS011;11833;52.554;13.554;2023-06-10T07:35:05;8.43;;;4.88;;
23322;SDS011;11833;52.554;13.554;2023-06-10T07:37:33;11.75;;;4.18;;
23322;SDS011;11833;52.554;13.554;2023-06-10T07:39:59;14.45;;;4.68;;
23322;SDS011;11833;52.554;13.554;2023-06-10T07:42:25;6.63;;;4.60;;
23322;SDS011;11833;52.554;13.554;2023-06-10T07:44:50;9.68;;;4.60;;
23322;SDS011;11833;52.554;13.554;2023-06-10T07:47:16;6.63;;;4.30;;
23322;SDS011;11833;52.554;13.554;2023-06-10T07:49:43;5.72;;;4.90;;
23322;SDS011;11833;52.554;13.554;2023-06-10T07:52:08;9.73;;;4.20;;
23322;SDS011;11833;52.554;13.554;2023-06-10T07:54:34;9.88;;;5.05;;
23322;SDS011;11833;52.554;13.554;2023-06-10T07:57:00;8.57;;;4.60;;
23322;SDS011;11833;52.554;13.554;2023-06-10T07:59:26;8.68;;;4.63;;
23322;SDS011;11833;52.554;13.554;2023-06-10T08:01:52;13.68;;;6.32;;
23322;SDS011;11833;52.554;13.554;2023-06-10T08:04:18;9.18;;;5.60;;
23322;SDS011;11833;52.554;13.554;2023-06-10T08:06:44;12.23;;;5.85;;
23322;SDS011;11833;52.554;13.554;2023-06-10T08:09:09;11.82;;;4.70;;
23322;SDS011;11833;52.554;13.554;2023-06-10T08:11:35;5.90;;;4.13;;
23322;SDS011;11833;52.554;13.554;2023-06-10T08:14:01;7.90;;;4.30;;
23322;SDS011;11833;52.554;13.554;2023-06-10T08:16:27;10.60;;;5.13;;
23322;SDS011;11833;52.554;13.554;2023-06-10T08:18:53;6.10;;;4.28;;
23322;SDS011;11833;52.554;13.554;2023-06-10T08:21:18;10.88;;;6.13;;
23322;SDS011;11833;52.554;13.554;2023-06-10T08:23:44;9.23;;;4.45;;
23322;SDS011;11833;52.554;13.554;2023-06-10T08:26:10;9.10;;;4.57;;
23322;SDS011;11833;52.554;13.554;2023-06-10T08:28:36;8.65;;;4.60;;
23322;SDS011;11833;52.554;13.554;2023-06-10T08:31:01;12.23;;;5.25;;
23322;SDS011;11833;52.554;13.554;2023-06-10T08:33:27;8.20;;;4.43;;
23322;SDS011;11833;52.554;13.554;2023-06-10T08:35:53;9.93;;;4.65;;
23322;SDS011;11833;52.554;13.554;2023-06-10T08:38:19;12.52;;;5.30;;
23322;SDS011;11833;52.554;13.554;2023-06-10T08:40:44;9.23;;;4.38;;
23322;SDS011;11833;52.554;13.554;2023-06-10T08:43:15;13.68;;;4.53;;
23322;SDS011;11833;52.554;13.554;2023-06-10T08:45:48;5.15;;;4.22;;
23322;SDS011;11833;52.554;13.554;2023-06-10T08:48:14;9.90;;;5.03;;
23322;SDS011;11833;52.554;13.554;2023-06-10T08:50:44;10.85;;;4.40;;
23322;SDS011;11833;52.554;13.554;2023-06-10T08:53:10;10.10;;;4.47;;
23322;SDS011;11833;52.554;13.554;2023-06-10T08:55:45;8.40;;;4.35;;
23322;SDS011;11833;52.554;13.554;2023-06-10T08:58:17;10.70;;;4.75;;
23322;SDS011;11833;52.554;13.554;2023-06-10T09:00:44;10.65;;;4.43;;
23322;SDS011;11833;52.554;13.554;2023-06-10T09:03:10;10.35;;;4.25;;
23322;SDS011;11833;52.554;13.554;2023-06-10T09:05:36;8.27;;;4.22;;
23322;SDS011;11833;52.554;13.554;2023-06-10T09:08:03;9.02;;;4.32;;
23322;SDS011;11833;52.554;13.554;2023-06-10T09:10:30;7.45;;;3.92;;
23322;SDS011;11833;52.554;13.554;2023-06-10T09:12:57;7.60;;;5.05;;
23322;SDS011;11833;52.554;13.554;2023-06-10T09:15:23;12.65;;;4.68;;
23322;SDS011;11833;52.554;13.554;2023-06-10T09:17:49;7.75;;;4.65;;
23322;SDS011;11833;52.554;13.554;2023-06-10T09:20:16;8.40;;;4.60;;
23322;SDS011;11833;52.554;13.554;2023-06-10T09:22:42;14.07;;;4.28;;
23322;SDS011;11833;52.554;13.554;2023-06-10T09:25:09;13.45;;;4.57;;
23322;SDS011;11833;52.554;13.554;2023-06-10T09:27:47;8.50;;;4.03;;
23322;SDS011;11833;52.554;13.554;2023-06-10T09:32:56;10.02;;;3.83;;
23322;SDS011;11833;52.554;13.554;2023-06-10T09:35:25;11.05;;;4.57;;
23322;SDS011;11833;52.554;13.554;2023-06-10T09:37:53;6.10;;;3.97;;
23322;SDS011;11833;52.554;13.554;2023-06-10T09:40:23;9.65;;;4.50;;
23322;SDS011;11833;52.554;13.554;2023-06-10T09:42:59;8.57;;;4.50;;
23322;SDS011;11833;52.554;13.554;2023-06-10T09:45:31;9.77;;;4.30;;
23322;SDS011;11833;52.554;13.554;2023-06-10T09:47:57;8.38;;;4.68;;
23322;SDS011;11833;52.554;13.554;2023-06-10T09:50:24;7.05;;;4.53;;
23322;SDS011;11833;52.554;13.554;2023-06-10T09:52:50;6.70;;;4.35;;
23322;SDS011;11833;52.554;13.554;2023-06-10T09:55:16;5.63;;;4.22;;
23322;SDS011;11833;52.554;13.554;2023-06-10T09:57:42;11.93;;;5.78;;
23322;SDS011;11833;52.554;13.554;2023-06-10T10:00:12;9.73;;;5.53;;
23322;SDS011;11833;52.554;13.554;2023-06-10T10:02:46;10.63;;;4.40;;
23322;SDS011;11833;52.554;13.554;2023-06-10T10:05:15;6.25;;;4.32;;
23322;SDS011;11833;52.554;13.554;2023-06-10T10:07:43;5.45;;;4.60;;
23322;SDS011;11833;52.554;13.554;2023-06-10T10:10:11;7.10;;;4.25;;
23322;SDS011;11833;52.554;13.554;2023-06-10T10:12:39;7.20;;;4.82;;
23322;SDS011;11833;52.554;13.554;2023-06-10T10:15:07;7.40;;;5.13;;
23322;SDS011;11833;52.554;13.554;2023-06-10T10:17:35;5.57;;;4.20;;
23322;SDS011;11833;52.554;13.554;2023-06-10T10:20:06;4.22;;;3.00;;
23322;SDS011;11833;52.554;13.554;2023-06-10T10:22:40;6.68;;;3.20;;
23322;SDS011;11833;52.554;13.554;2023-06-10T10:25:11;4.85;;;3.40;;
23322;SDS011;11833;52.554;13.554;2023-06-10T10:27:51;6.00;;;3.13;;
23322;SDS011;11833;52.554;13.554;2023-06-10T10:30:22;3.95;;;3.35;;
23322;SDS011;11833;52.554;13.554;2023-06-10T10:33:06;5.30;;;3.30;;
23322;SDS011;11833;52.554;13.554;2023-06-10T10:36:18;3.83;;;3.10;;
23322;SDS011;11833;52.554;13.554;2023-06-10T10:38:44;4.05;;;2.95;;
23322;SDS011;11833;52.554;13.554;2023-06-10T10:41:13;3.30;;;2.67;;
23322;SDS011;11833;52.554;13.554;2023-06-10T10:43:40;7.10;;;3.22;;
23322;SDS011;11833;52.554;13.554;2023-06-10T10:46:11;6.88;;;3.75;;
23322;SDS011;11833;52.554;13.554;2023-06-10T10:51:08;6.30;;;3.28;;
23322;SDS011;11833;52.554;13.554;2023-06-10T10:53:36;5.07;;;3.47;;
23322;SDS011;11833;52.554;13.554;2023-06-10T10:58:37;6.95;;;4.00;;
23322;SDS011;11833;52.554;13.554;2023-06-10T11:01:10;8.32;;;3.33;;
23322;SDS011;11833;52.554;13.554;2023-06-10T11:03:43;5.25;;;2.95;;
23322;SDS011;11833;52.554;13.554;2023-06-10T11:06:12;4.50;;;2.85;;
23322;SDS011;11833;52.554;13.554;2023-06-10T11:11:22;5.38;;;2.65;;
23322;SDS011;11833;52.554;13.554;2023-06-10T11:16:38;5.85;;;2.67;;
23322;SDS011;11833;52.554;13.554;2023-06-10T11:19:06;5.07;;;2.72;;
23322;SDS011;11833;52.554;13.554;2023-06-10T11:21:36;4.03;;;2.70;;
23322;SDS011;11833;52.554;13.554;2023-06-10T11:24:24;3.47;;;2.50;;
23322;SDS011;11833;52.554;13.554;2023-06-10T11:26:51;4.28;;;2.75;;
23322;SDS011;11833;52.554;13.554;2023-06-10T11:29:17;5.68;;;3.28;;
23322;SDS011;11833;52.554;13.554;2023-06-10T11:31:45;4.60;;;3.95;;
23322;SDS011;11833;52.554;13.554;2023-06-10T11:34:20;5.35;;;3.47;;
23322;SDS011;11833;52.554;13.554;2023-06-10T11:36:52;8.45;;;3.50;;
23322;SDS011;11833;52.554;13.554;2023-06-10T11:39:19;4.65;;;3.10;;
23322;SDS011;11833;52.554;13.554;2023-06-10T11:41:46;5.95;;;3.40;;
23322;SDS011;11833;52.554;13.554;2023-06-10T11:44:12;5.03;;;3.33;;
23322;SDS011;11833;52.554;13.554;2023-06-10T11:46:39;5.07;;;3.50;;
23322;SDS011;11833;52.554;13.554;2023-06-10T11:49:07;5.20;;;3.20;;
23322;SDS011;11833;52.554;13.554;2023-06-10T11:51:40;5.45;;;2.80;;
23322;SDS011;11833;52.554;13.554;2023-06-10T11:54:10;3.30;;;3.00;;
23322;SDS011;11833;52.554;13.554;2023-06-10T11:56:35;4.22;;;2.75;;
23322;SDS011;11833;52.554;13.554;2023-06-10T11:59:02;5.50;;;3.67;;
23322;SDS011;11833;52.554;13.554;2023-06-10T12:01:32;3.53;;;3.22;;
23322;SDS011;11833;52.554;13.554;2023-06-10T12:04:01;5.68;;;3.35;;
23322;SDS011;11833;52.554;13.554;2023-06-10T12:06:41;3.83;;;3.47;;
23322;SDS011;11833;52.554;13.554;2023-06-10T12:11:44;5.13;;;4.53;;
23322;SDS011;11833;52.554;13.554;2023-06-10T12:14:10;9.65;;;4.13;;
23322;SDS011;11833;52.554;13.554;2023-06-10T12:16:36;7.13;;;4.25;;
23322;SDS011;11833;52.554;13.554;2023-06-10T12:19:02;5.03;;;3.85;;
23322;SDS011;11833;52.554;13.554;2023-06-10T12:21:30;7.60;;;4.30;;
23322;SDS011;11833;52.554;13.554;2023-06-10T12:26:43;7.85;;;4.15;;
23322;SDS011;11833;52.554;13.554;2023-06-10T12:35:01;5.85;;;3.75;;
23322;SDS011;11833;52.554;13.554;2023-06-10T12:37:15;5.85;;;5.00;;
23322;SDS011;11833;52.554;13.554;2023-06-10T12:39:41;6.90;;;4.72;;
23322;SDS011;11833;52.554;13.554;2023-06-10T12:42:11;7.05;;;4.60;;
23322;SDS011;11833;52.554;13.554;2023-06-10T12:44:40;5.13;;;4.50;;
23322;SDS011;11833;52.554;13.554;2023-06-10T12:47:10;5.95;;;4.88;;
23322;SDS011;11833;52.554;13.554;2023-06-10T12:52:05;7.32;;;4.88;;
23322;SDS011;11833;52.554;13.554;2023-06-10T12:54:32;4.70;;;4.22;;
23322;SDS011;11833;52.554;13.554;2023-06-10T12:56:59;6.85;;;4.68;;
23322;SDS011;11833;52.554;13.554;2023-06-10T12:59:26;7.28;;;4.15;;
23322;SDS011;11833;52.554;13.554;2023-06-10T13:01:52;7.63;;;5.03;;
23322;SDS011;11833;52.554;13.554;2023-06-10T13:04:19;7.35;;;5.00;;
23322;SDS011;11833;52.554;13.554;2023-06-10T13:06:46;8.57;;;4.18;;
23322;SDS011;11833;52.554;13.554;2023-06-10T13:09:14;7.43;;;4.90;;
23322;SDS011;11833;52.554;13.554;2023-06-10T13:11:40;5.28;;;4.50;;
23322;SDS011;11833;52.554;13.554;2023-06-10T13:14:07;5.05;;;4.55;;
23322;SDS011;11833;52.554;13.554;2023-06-10T13:16:33;5.40;;;4.35;;
23322;SDS011;11833;52.554;13.554;2023-06-10T13:18:59;6.70;;;5.32;;
23322;SDS011;11833;52.554;13.554;2023-06-10T13:21:27;6.72;;;4.80;;
23322;SDS011;11833;52.554;13.554;2023-06-10T13:23:53;7.28;;;4.50;;
23322;SDS011;11833;52.554;13.554;2023-06-10T13:26:19;6.50;;;4.40;;
23322;SDS011;11833;52.554;13.554;2023-06-10T13:28:45;5.55;;;4.28;;
23322;SDS011;11833;52.554;13.554;2023-06-10T13:31:11;6.35;;;3.97;;
23322;SDS011;11833;52.554;13.554;2023-06-10T13:33:37;6.10;;;4.50;;
23322;SDS011;11833;52.554;13.554;2023-06-10T13:36:03;8.20;;;4.47;;
23322;SDS011;11833;52.554;13.554;2023-06-10T13:38:29;5.55;;;4.43;;
23322;SDS011;11833;52.554;13.554;2023-06-10T13:40:55;4.68;;;4.28;;
23322;SDS011;11833;52.554;13.554;2023-06-10T13:43:21;6.68;;;4.20;;
23322;SDS011;11833;52.554;13.554;2023-06-10T13:45:46;5.60;;;4.10;;
23322;SDS011;11833;52.554;13.554;2023-06-10T13:48:12;6.85;;;4.22;;
23322;SDS011;11833;52.554;13.554;2023-06-10T13:50:38;8.30;;;4.13;;
23322;SDS011;11833;52.554;13.554;2023-06-10T13:53:04;5.63;;;3.35;;
23322;SDS011;11833;52.554;13.554;2023-06-10T13:55:29;4.65;;;3.72;;
23322;SDS011;11833;52.554;13.554;2023-06-10T13:57:55;5.25;;;3.90;;
23322;SDS011;11833;52.554;13.554;2023-06-10T14:00:21;4.97;;;3.95;;
23322;SDS011;11833;52.554;13.554;2023-06-10T14:02:46;4.97;;;3.67;;
23322;SDS011;11833;52.554;13.554;2023-06-10T14:05:12;7.72;;;4.18;;
23322;SDS011;11833;52.554;13.554;2023-06-10T14:07:38;5.38;;;4.75;;
23322;SDS011;11833;52.554;13.554;2023-06-10T14:10:05;5.30;;;4.07;;
23322;SDS011;11833;52.554;13.554;2023-06-10T14:12:33;5.97;;;4.10;;
23322;SDS011;11833;52.554;13.554;2023-06-10T14:14:59;4.10;;;3.70;;
23322;SDS011;11833;52.554;13.554;2023-06-10T14:17:26;6.03;;;4.35;;
23322;SDS011;11833;52.554;13.554;2023-06-10T14:19:51;5.43;;;4.25;;
23322;SDS011;11833;52.554;13.554;2023-06-10T14:22:17;6.30;;;4.63;;
23322;SDS011;11833;52.554;13.554;2023-06-10T14:24:43;5.75;;;4.25;;
23322;SDS011;11833;52.554;13.554;2023-06-10T14:27:08;7.00;;;4.15;;
23322;SDS011;11833;52.554;13.554;2023-06-10T14:29:34;4.43;;;3.75;;
23322;SDS011;11833;52.554;13.554;2023-06-10T14:32:00;4.35;;;3.83;;
23322;SDS011;11833;52.554;13.554;2023-06-10T14:34:26;6.57;;;3.85;;
23322;SDS011;11833;52.554;13.554;2023-06-10T14:36:54;5.35;;;3.70;;
23322;SDS011;11833;52.554;13.554;2023-06-10T14:39:20;6.78;;;3.53;;
23322;SDS011;11833;52.554;13.554;2023-06-10T14:41:46;8.75;;;3.65;;
23322;SDS011;11833;52.554;13.554;2023-06-10T14:44:12;8.25;;;3.75;;
23322;SDS011;11833;52.554;13.554;2023-06-10T14:46:38;3.55;;;3.25;;
23322;SDS011;11833;52.554;13.554;2023-06-10T14:49:04;7.10;;;3.60;;
23322;SDS011;11833;52.554;13.554;2023-06-10T14:51:29;5.20;;;3.65;;
23322;SDS011;11833;52.554;13.554;2023-06-10T14:53:55;3.47;;;3.17;;
23322;SDS011;11833;52.554;13.554;2023-06-10T14:56:21;6.35;;;3.60;;
23322;SDS011;11833;52.554;13.554;2023-06-10T14:58:47;5.43;;;3.70;;
23322;SDS011;11833;52.554;13.554;2023-06-10T15:01:12;4.22;;;3.58;;
23322;SDS011;11833;52.554;13.554;2023-06-10T15:03:38;6.15;;;3.70;;
23322;SDS011;11833;52.554;13.554;2023-06-10T15:06:04;7.57;;;6.85;;
23322;SDS011;11833;52.554;13.554;2023-06-10T15:08:29;6.75;;;5.70;;